CLASSEMENT SCRATCH DU 5060m
Arv Arv
Sexe
Doss Nom Prénom Club Nat. Nais Cat. Cls Temps
1 1 888 RUST Stéphane ANA/ANR 1970 SEM 1 0:16:16
2 2 863 WENGER Stéphane ANA/SGW 1972 SEM 2 0:16:40
3 3 926 Salloua Rafid Asptt 1975 SEM 3 0:16:54
4 1 918 POUILLOT Stéphane CA MONTREUIL 1961 V1M 1 0:17:01
5 4 951 Schauer Alexandre IRAL 1972 SEM 4 0:17:09
6 5 970 Drion Michel AC Erstein 1968 SEM 5 0:17:23
7 6 965 Steffen Eric RT Schweighouse 1973 SEM 6 0:17:39
8 2 947 Violi Patrick AS Gunther 1957 V1M 2 0:17:58
9 7 939 Dennler Denis VDB Betschdorf 1966 SEM 7 0:18:05
10 8 960 Adam Laurent Neudorf 1969 SEM 8 0:18:15
11 3 941 Kuntz Bernard ANA Sgw 1961 V1M 3 0:18:44
12 1 944 Gergaud David ANA Fcjab 1988 CAM 1 0:18:55
13 4 948 Faullimel Roger ANA Fcjab 1958 V1M 4 0:19:05
14 9 884 HOFFMANN Pierre LA SALINE 1974 SEM 9 0:19:15
15 10 862 THALMANN Georges LA SALINE 1967 SEM 10 0:19:26
16 5 883 HALTER Serge ASL ROBERTSAU 1961 V1M 5 0:19:35
17 6 879 ANTONELLI Luigi Team Espace Marathon 1941 V3M 1 0:19:38
18 7 937 Rozmanowski Didier Russ 1961 V1M 6 0:19:43
19 8 962 Garel Patrick LSG Iffezheim 1954 V2M 1 0:19:46
20 9 963 Böhrer Jürgen TV Hatzenbühl 1958 V1M 7 0:19:47
21 10 865 MEYER Raoul Truchtersheim 1959 V1M 8 0:19:56
22 11 966 Schauinger Raymomd LA SALINE 1963 V1M 9 0:20:08
23 11 864 LOHR Alexis Weitbruch 1981 SEM 11 0:20:10
24 12 945 Matz Jacky Ases 1965 SEM 12 0:20:12
25 13 955 Wolff Stephane Macadam´s Cowboys 1973 SEM 13 0:20:20
26 14 956 Mischel Jeremy Macadam´s Cowboys 1983 SEM 14 0:20:20
27 2 921 TOMBOFENO Armelin FC Soultz S Forêts 1988 CAM 2 0:20:21
28 12 964 Bober Bernhard LSG Iffezheim 1961 V1M 10 0:20:22
29 15 892 SCHMITT Stéphane CE BURSTNER 1980 SEM 15 0:20:25
30 1 935 Leifheit Jean-Francois RT Schweighouse 1986 JUM 1 0:20:40
31 16 942 Jacquet Christophe Wolfisheim 1975 SEM 16 0:20:52
32 17 968 Bacher Jean-Marc LA SALINE 1968 SEM 17 0:21:06
33 13 950 Krumm Jean Robert RT Schweighouse 1957 V1M 11 0:21:15
34 14 929 Witkowski Bruno ASL ROBERTSAU 1963 V1M 12 0:21:19
35 15 886 LAUTER Fernand CE SNCF 1953 V2M 2 0:21:21
36 18 887 COVILLERS Julien DOMNON les Dieuze 1980 SEM 18 0:21:26
37 16 954 Fischer Anne Marie RT Schweighouse 1960 V1F 1 0:21:28
38 17 882 BOCK Denis Riedseltz 1952 V2M 3 0:21:29
39 19 872 HUBRECHT Christian LA SALINE 1969 SEM 19 0:21:36
40 18 878 SIMON Pierre Souffelweryersheim 1960 V1M 13 0:21:41
41 19 869 RUCH Jean-Georges LA SALINE 1964 V1M 14 0:21:46
42 2 868 WALTHER Claude ANA-RAC Wissembourg 1985 JUF 1 0:21:49
43 20 866 VORBURGER Alain LA SALINE 1956 V1M 15 0:22:20
44 20 920 MEYER Sandrine OH Morsbronn 1977 SEF 1 0:22:25
45 21 919 DEPIT Stéphane OH Morsbronn 1969 SEM 20 0:22:37
46 21 930 Hecker Gilbert Ana/aba 1958 V1M 16 0:22:38
47 22 874 GRUSS Cedric Mitschdorf 1976 SEM 21 0:22:38
48 3 927 Meissner Sarah Gries 1988 CAF 1 0:22:57
49 3 897 SCHMITT Michel CE BURSTNER 1985 JUM 2 0:23:01
50 23 896 WALTER Laurent CE BURSTNER 1969 SEM 22 0:23:21
51 22 876 STAUB Roland ANA-FCJAB 1946 V2M 4 0:23:25
52 23 932 Spieser Jean-Paul CSL Neuf-Brisach 1963 V1M 17 0:23:32
53 24 961 Herrmann Charles LA SALINE 1958 V1M 18 0:23:38
54 25 943 Gergaud Xavier Kaltenhouse 1957 V1M 19 0:23:42
55 26 931 Klag Egon LLG Drei Buchen 1950 V2M 5 0:23:57
56 24 890 SCHALCK Christophe CE BURSTNER 1981 SEM 23 0:24:12
57 25 917 HEYMES Chantal CO Insming 1965 SEF 2 0:24:22
58 26 893 JACKY Philippe CE BURSTNER 1979 SEM 24 0:24:27
59 4 940 Knittel Leon ANA Racw 1988 CAM 3 0:24:30
60 27 895 HERRMANN Fabien CE BURSTNER 1971 SEM 25 0:24:33
61 28 873 STIEBER Anne OH Morsbronn 1967 SEF 3 0:24:36
62 29 969 Paterna Carmen CPM Wasselonne 1975 SEF 4 0:24:40
63 30 894 WELSCH Mickael CE BURSTNER 1981 SEM 26 0:24:43
64 31 899 SCHMITT Sylvie Climbach 1981 SEF 5 0:24:49
65 27 933 Beill Marc AS LA Claquette 1957 V1M 20 0:24:51
66 28 875 WALKER Remi Eichelthal 1953 V2M 6 0:25:25
67 32 870 SCHAEFFER Dany LA SALINE 1965 SEM 27 0:25:57
68 29 946 Mossler Frederic Wasselonne 1957 V1M 21 0:26:01
69 33 922 Fritz Nicole LA SALINE 1968 SEF 6 0:26:03
70 34 881 LUHMANN Maryse Sarreguemines 1969 SEF 7 0:26:34
71 35 934 Boccara Valerie Joinville LE Pont 1975 SEF 8 0:26:52
72 36 938 Dennler Stephanie Betschdorf 1969 SEF 9 0:26:59
73 37 952 Fuchs Tania LA SALINE 1973 SEF 10 0:27:05
74 38 898 BOSSERT Frederic CE BURSTNER 1982 SEM 28 0:27:10
75 4 949 Krumm Celine RT Schweighouse 1985 JUF 2 0:27:23
76 39 891 KINDELBERGER Steeve CE BURSTNER 1982 SEM 29 0:27:52
77 40 953 Henry Nathalie LA SALINE 1968 SEF 11 0:28:13
78 41 885 THOMANN Aurélie Niederlauterbach 1978 SEF 12 0:28:32
79 42 867 THOMANN Joel Niederlauterbach 1973 SEM 30 0:28:32
80 43 880 MATZ Angelique C E  SNCF 1965 SEF 13 0:29:18
81 44 925 Wortmann Katja Elchesheim 1974 SEF 14 0:29:27
82 30 924 Lustig Denis ANA/LAC 1964 V1M 22 0:29:28
83 31 936 Bayer Marie-Louise TV Bad-Bergzabern 1946 V2F 1 0:29:34
84 45 967 Heisser Magali Lingolsheim 1969 SEF 15 0:29:52
85 46 916 CLAUSS Gabrielle Riedseltz 1981 SEF 16 0:29:53
86 47 923 Boisset Anne 1967 SEF 17 0:30:15
87 48 958 Weimer Annick Altenstadt 1979 SEF 18 0:30:36
88 49 959 Schuler Christophe Altenstadt 1973 SEM 31 0:30:37
89 50 957 Arnholt Cathy Seebach 1970 SEF 19 0:30:39